createdAt,value
2022-08-01T00:00:20.003Z,99817.94
2022-08-01T00:02:46.837Z,99821.50
2022-08-01T00:05:13.872Z,99821.66
2022-08-01T00:07:41.016Z,99825.25
2022-08-01T00:10:13.882Z,99832.38
2022-08-01T00:12:42.015Z,99828.31
2022-08-01T00:15:11.312Z,99829.41
2022-08-01T00:17:38.885Z,99839.25
2022-08-01T00:20:12.245Z,99833.34
2022-08-01T00:22:39.536Z,99818.88
2022-08-01T00:25:07.384Z,99820.91
2022-08-01T00:27:36.417Z,99823.53
2022-08-01T00:30:13.636Z,99821.94
2022-08-01T00:32:43.444Z,99824.84
2022-08-01T00:35:11.234Z,99836.09
2022-08-01T00:37:38.261Z,99825.97
2022-08-01T00:40:06.198Z,99821.75
2022-08-01T00:42:33.179Z,99828.81
2022-08-01T00:44:59.990Z,99821.19
2022-08-01T00:47:26.760Z,99820.47
2022-08-01T00:49:53.535Z,99826.53
2022-08-01T00:52:21.159Z,99821.53
2022-08-01T00:54:48.872Z,99821.69
2022-08-01T00:57:15.746Z,99824.44
2022-08-01T00:59:45.502Z,99823.00
2022-08-01T01:02:15.573Z,99820.63
2022-08-01T01:04:43.538Z,99831.13
2022-08-01T01:07:20.116Z,99823.53
2022-08-01T01:10:51.501Z,99817.22
2022-08-01T01:13:27.057Z,99817.63
2022-08-01T01:16:04.682Z,99818.66
2022-08-01T01:18:38.700Z,99822.28
2022-08-01T01:21:17.626Z,99819.09
2022-08-01T01:24:17.788Z,99827.16
2022-08-01T01:27:09.608Z,99816.31
2022-08-01T01:29:59.802Z,99818.03
2022-08-01T01:32:39.224Z,99826.75
2022-08-01T01:35:29.514Z,99831.22
2022-08-01T01:38:05.154Z,99832.09
2022-08-01T01:40:33.270Z,99823.47
2022-08-01T01:43:00.787Z,99827.91
2022-08-01T01:45:30.368Z,99828.88
2022-08-01T01:47:58.334Z,99834.88
2022-08-01T01:50:28.304Z,99833.16
2022-08-01T01:52:57.216Z,99834.13
2022-08-01T01:55:27.128Z,99829.88
2022-08-01T01:57:56.910Z,99830.78
2022-08-01T02:00:26.031Z,99827.44
2022-08-01T02:02:56.086Z,99820.53
2022-08-01T02:05:23.953Z,99820.53
2022-08-01T02:07:53.454Z,99811.94
2022-08-01T02:10:28.633Z,99811.94
2022-08-01T02:12:58.722Z,99809.28
2022-08-01T02:15:29.000Z,99815.34
2022-08-01T02:17:57.743Z,99812.78
2022-08-01T02:20:29.903Z,99809.38
2022-08-01T02:23:14.723Z,99816.34
2022-08-01T02:26:09.514Z,99811.19
2022-08-01T02:28:50.259Z,99810.41
2022-08-01T02:31:22.405Z,99808.59
2022-08-01T02:34:06.660Z,99817.25
2022-08-01T02:36:36.368Z,99812.94
2022-08-01T02:39:10.179Z,99806.00
2022-08-01T02:41:43.439Z,99805.13
2022-08-01T02:44:23.467Z,99802.44
2022-08-01T02:47:03.056Z,99803.28
2022-08-01T02:49:39.063Z,99807.63
2022-08-01T02:52:12.829Z,99800.78
2022-08-01T02:54:41.970Z,99799.88
2022-08-01T02:57:13.690Z,99797.22
2022-08-01T02:59:43.375Z,99798.88
2022-08-01T03:02:14.490Z,99794.53
2022-08-01T03:04:43.210Z,99807.41
2022-08-01T03:07:13.901Z,99796.22
2022-08-01T03:09:46.726Z,99801.31
2022-08-01T03:12:20.652Z,99803.00
2022-08-01T03:14:51.674Z,99810.81
2022-08-01T03:17:23.545Z,99802.91
2022-08-01T03:19:53.326Z,99809.75
2022-08-01T03:22:25.533Z,99811.34
2022-08-01T03:24:54.819Z,99808.75
2022-08-01T03:27:25.145Z,99805.28
2022-08-01T03:29:55.681Z,99807.84
2022-08-01T03:32:23.886Z,99798.34
2022-08-01T03:34:50.891Z,99800.94
2022-08-01T03:38:13.507Z,99808.59
2022-08-01T03:40:42.416Z,99804.41
2022-08-01T03:43:19.229Z,99813.84
2022-08-01T03:45:51.679Z,99815.53
2022-08-01T03:48:23.390Z,99814.72
2022-08-01T03:50:53.302Z,99816.44
2022-08-01T03:53:26.774Z,99812.94
2022-08-01T03:55:56.809Z,99822.44
2022-08-01T03:58:24.245Z,99817.28
2022-08-01T04:00:51.501Z,99805.28
2022-08-01T04:03:18.835Z,99809.53
2022-08-01T04:05:45.882Z,99809.53
2022-08-01T04:08:12.727Z,99806.97
2022-08-01T04:10:39.753Z,99812.13
2022-08-01T04:13:06.676Z,99815.44
2022-08-01T04:15:33.587Z,99817.13
2022-08-01T04:18:00.718Z,99817.03
2022-08-01T04:20:27.684Z,99811.97
2022-08-01T04:22:54.508Z,99817.88
2022-08-01T04:25:33.881Z,99818.72
2022-08-01T04:28:05.149Z,99819.53
2022-08-01T04:30:37.126Z,99824.72
2022-08-01T04:33:08.843Z,99826.41
2022-08-01T04:36:03.320Z,99829.88
2022-08-01T04:38:36.236Z,99841.88
2022-08-01T04:41:08.640Z,99832.53
2022-08-01T04:43:38.385Z,99844.56
2022-08-01T04:46:07.818Z,99845.38
2022-08-01T04:48:39.408Z,99846.28
2022-08-01T04:51:17.179Z,99849.72
2022-08-01T04:53:46.764Z,99856.59
2022-08-01T04:56:14.699Z,99857.53
2022-08-01T04:58:45.052Z,99860.13
2022-08-01T05:01:12.719Z,99858.38
2022-08-01T05:03:39.781Z,99852.38
2022-08-01T05:06:07.644Z,99847.22
2022-08-01T05:08:34.586Z,99855.69
2022-08-01T05:11:02.143Z,99848.81
2022-08-01T05:13:28.977Z,99851.31
2022-08-01T05:15:55.751Z,99853.81
2022-08-01T05:18:27.929Z,99856.31
2022-08-01T05:20:55.709Z,99849.44
2022-08-01T05:23:32.140Z,99851.06
2022-08-01T05:26:11.080Z,99850.16
2022-08-01T05:28:37.848Z,99854.44
2022-08-01T05:31:04.868Z,99867.28
2022-08-01T05:33:31.638Z,99862.97
2022-08-01T05:35:58.415Z,99862.81
2022-08-01T05:38:25.171Z,99865.19
2022-08-01T05:40:51.943Z,99866.78
2022-08-01T05:43:18.751Z,99866.56
2022-08-01T05:45:46.876Z,99862.00
2022-08-01T05:48:13.816Z,99863.44
2022-08-01T05:50:40.619Z,99862.28
2022-08-01T05:53:07.420Z,99858.59
2022-08-01T05:55:34.239Z,99864.28
2022-08-01T05:58:01.004Z,99867.31
2022-08-01T06:00:27.914Z,99867.75
2022-08-01T06:02:54.799Z,99868.13
2022-08-01T06:05:21.627Z,99864.38
2022-08-01T06:07:48.379Z,99873.38
2022-08-01T06:10:15.144Z,99869.56
2022-08-01T06:12:41.963Z,99871.72
2022-08-01T06:15:09.329Z,99870.50
2022-08-01T06:17:36.310Z,99865.91
2022-08-01T06:20:04.484Z,99871.78
2022-08-01T06:22:31.225Z,99868.09
2022-08-01T06:24:58.652Z,99869.69
2022-08-01T06:27:28.473Z,99861.75
2022-08-01T06:29:55.701Z,99864.16
2022-08-01T06:32:27.970Z,99871.88
2022-08-01T06:34:56.443Z,99870.00
2022-08-01T06:37:24.010Z,99861.16
2022-08-01T06:39:51.284Z,99863.59
2022-08-01T06:42:18.395Z,99872.97
2022-08-01T06:44:46.125Z,99872.81
2022-08-01T06:47:13.510Z,99871.00
2022-08-01T06:49:40.473Z,99870.13
2022-08-01T06:52:07.664Z,99871.72
2022-08-01T06:54:34.729Z,99870.72
2022-08-01T06:57:01.539Z,99876.66
2022-08-01T06:59:28.674Z,99875.66
2022-08-01T07:01:55.442Z,99883.25
2022-08-01T07:04:22.176Z,99878.84
2022-08-01T07:06:48.960Z,99872.72
2022-08-01T07:09:15.720Z,99871.81
2022-08-01T07:11:42.598Z,99878.56
2022-08-01T07:14:09.662Z,99878.66
2022-08-01T07:16:36.445Z,99873.41
2022-08-01T07:19:03.689Z,99865.53
2022-08-01T07:21:39.786Z,99880.84
2022-08-01T07:24:12.874Z,99877.97
2022-08-01T07:26:53.436Z,99882.00
2022-08-01T07:29:30.172Z,99883.97
2022-08-01T07:31:58.709Z,99883.28
2022-08-01T07:34:26.565Z,99883.56
2022-08-01T07:36:54.212Z,99886.44
2022-08-01T07:39:21.629Z,99887.00
2022-08-01T07:42:06.604Z,99885.09
2022-08-01T07:44:36.891Z,99891.59
2022-08-01T07:47:04.936Z,99896.72
2022-08-01T07:49:34.938Z,99892.97
2022-08-01T07:52:04.843Z,99885.78
2022-08-01T07:54:35.178Z,99885.66
2022-08-01T07:57:03.679Z,99897.81
2022-08-01T07:59:31.090Z,99894.59
2022-08-01T08:01:58.026Z,99885.31
2022-08-01T08:04:25.355Z,99886.41
2022-08-01T08:06:54.233Z,99893.63
2022-08-01T08:09:21.085Z,99906.03
2022-08-01T08:11:48.618Z,99894.28
2022-08-01T08:14:17.304Z,99903.38
2022-08-01T08:16:44.899Z,99897.88
2022-08-01T08:19:12.377Z,99894.22
2022-08-01T08:21:39.653Z,99904.50
2022-08-01T08:24:27.429Z,99911.34
2022-08-01T08:27:02.014Z,99910.53
2022-08-01T08:29:32.787Z,99906.16
2022-08-01T08:32:01.172Z,99906.25
2022-08-01T08:34:29.852Z,99905.44
2022-08-01T08:36:59.021Z,99908.13
2022-08-01T08:39:30.403Z,99902.09
2022-08-01T08:42:01.019Z,99898.34
2022-08-01T08:44:27.811Z,99897.47
2022-08-01T08:46:57.339Z,99902.59
2022-08-01T08:49:35.843Z,99906.16
2022-08-01T08:52:05.661Z,99912.34
2022-08-01T08:54:39.099Z,99914.06
2022-08-01T08:57:08.555Z,99914.09
2022-08-01T08:59:35.632Z,99904.50
2022-08-01T09:02:02.872Z,99907.72
2022-08-01T09:04:31.580Z,99914.50
2022-08-01T09:07:02.217Z,99912.53
2022-08-01T09:09:29.932Z,99914.88
2022-08-01T09:12:08.816Z,99910.69
2022-08-01T09:14:46.976Z,99911.94
2022-08-01T09:17:13.928Z,99917.44
2022-08-01T09:19:54.422Z,99914.19
2022-08-01T09:22:25.097Z,99915.28
2022-08-01T09:25:17.949Z,99919.25
2022-08-01T09:27:46.212Z,99922.94
2022-08-01T09:30:19.608Z,99924.19
2022-08-01T09:33:06.560Z,99926.03
2022-08-01T09:35:54.464Z,99924.69
2022-08-01T09:38:28.137Z,99921.56
2022-08-01T09:41:01.591Z,99932.19
2022-08-01T09:43:31.962Z,99924.50
2022-08-01T09:46:01.102Z,99927.50
2022-08-01T09:48:33.560Z,99923.34
2022-08-01T09:51:07.410Z,99930.56
2022-08-01T09:53:51.693Z,99933.66
2022-08-01T09:56:27.546Z,99934.59
2022-08-01T09:59:01.378Z,99938.06
2022-08-01T10:01:45.036Z,99933.34
2022-08-01T10:04:22.588Z,99930.06
2022-08-01T10:06:55.550Z,99930.38
2022-08-01T10:09:39.866Z,99928.63
2022-08-01T10:12:15.392Z,99925.41
2022-08-01T10:14:46.195Z,99929.78
2022-08-01T10:17:19.966Z,99921.13
2022-08-01T10:19:51.687Z,99927.22
2022-08-01T10:22:23.845Z,99931.66
2022-08-01T10:24:58.076Z,99918.56
2022-08-01T10:27:38.039Z,99921.56
2022-08-01T10:30:19.885Z,99929.31
2022-08-01T10:32:54.981Z,99927.78
2022-08-01T10:35:45.945Z,99925.69
2022-08-01T10:38:13.914Z,99926.34
2022-08-01T10:40:43.860Z,99923.22
2022-08-01T10:43:12.297Z,99926.94
2022-08-01T10:45:40.953Z,99919.50
2022-08-01T10:48:21.578Z,99928.97
2022-08-01T10:50:53.949Z,99924.19
2022-08-01T10:53:43.040Z,99918.81
2022-08-01T10:56:12.806Z,99926.97
2022-08-01T10:58:48.798Z,99924.19
2022-08-01T11:01:27.975Z,99926.91
2022-08-01T11:04:06.067Z,99917.88
2022-08-01T11:06:35.865Z,99920.91
2022-08-01T11:09:36.404Z,99915.03
2022-08-01T11:12:23.245Z,99911.19
2022-08-01T11:15:02.730Z,99916.16
2022-08-01T11:17:54.927Z,99916.31
2022-08-01T11:20:27.360Z,99914.28
2022-08-01T11:23:03.619Z,99903.50
2022-08-01T11:25:58.406Z,99906.38
2022-08-01T11:28:36.524Z,99898.81
2022-08-01T11:31:11.569Z,99909.44
2022-08-01T11:33:45.849Z,99900.56
2022-08-01T11:36:13.175Z,99908.38
2022-08-01T11:38:47.181Z,99904.22
2022-08-01T11:41:23.592Z,99904.22
2022-08-01T11:44:12.897Z,99906.78
2022-08-01T11:46:52.464Z,99910.00
2022-08-01T11:49:29.892Z,99905.84
2022-08-01T11:52:09.067Z,99908.31
2022-08-01T11:54:43.808Z,99907.50
2022-08-01T11:57:23.682Z,99905.63
2022-08-01T12:00:15.458Z,99908.69
2022-08-01T12:02:45.871Z,99902.78
2022-08-01T12:05:17.392Z,99901.38
2022-08-01T12:07:47.136Z,99897.94
2022-08-01T12:10:20.210Z,99901.25
2022-08-01T12:12:51.000Z,99904.66
2022-08-01T12:15:20.235Z,99911.59
2022-08-01T12:17:58.045Z,99900.44
2022-08-01T12:21:03.010Z,99906.09
2022-08-01T12:23:30.128Z,99908.59
2022-08-01T12:25:57.247Z,99905.69
2022-08-01T12:28:24.058Z,99908.03
2022-08-01T12:30:51.578Z,99901.13
2022-08-01T12:33:20.705Z,99892.91
2022-08-01T12:35:48.964Z,99893.13
2022-08-01T12:38:25.875Z,99894.41
2022-08-01T12:40:53.624Z,99894.41
2022-08-01T12:43:28.435Z,99894.94
2022-08-01T12:46:01.586Z,99890.34
2022-08-01T12:48:31.295Z,99890.72
2022-08-01T12:51:02.048Z,99895.00
2022-08-01T12:53:40.862Z,99890.72
2022-08-01T12:56:11.347Z,99894.84
2022-08-01T12:58:38.783Z,99899.31
2022-08-01T13:01:11.300Z,99891.84
2022-08-01T13:03:38.970Z,99891.47
2022-08-01T13:06:17.866Z,99887.78
2022-08-01T13:08:46.344Z,99894.44
2022-08-01T13:11:17.437Z,99889.97
2022-08-01T13:13:48.724Z,99880.97
2022-08-01T13:16:30.442Z,99890.13
2022-08-01T13:19:06.317Z,99898.16
2022-08-01T13:21:52.164Z,99895.22
2022-08-01T13:24:26.882Z,99893.13
2022-08-01T13:27:01.066Z,99889.97
2022-08-01T13:29:42.402Z,99888.84
2022-08-01T13:32:29.861Z,99890.47
2022-08-01T13:35:07.503Z,99881.75
2022-08-01T13:37:37.134Z,99880.09
2022-08-01T13:40:08.664Z,99886.22
2022-08-01T13:42:35.960Z,99884.38
2022-08-01T13:45:13.987Z,99887.69
2022-08-01T13:48:03.752Z,99886.72
2022-08-01T13:50:30.311Z,99896.09
2022-08-01T13:52:57.770Z,99885.59
2022-08-01T13:55:24.816Z,99883.94
2022-08-01T13:57:51.558Z,99890.31
2022-08-01T14:00:18.454Z,99891.47
2022-08-01T14:02:45.265Z,99890.09
2022-08-01T14:05:12.314Z,99885.09
2022-08-01T14:07:39.077Z,99888.03
2022-08-01T14:10:19.697Z,99879.22
2022-08-01T14:12:48.981Z,99879.13
2022-08-01T14:15:36.936Z,99886.38
2022-08-01T14:18:06.072Z,99877.44
2022-08-01T14:20:34.314Z,99878.72
2022-08-01T14:23:01.346Z,99872.16
2022-08-01T14:26:02.947Z,99875.78
2022-08-01T14:28:15.264Z,99873.97
2022-08-01T14:30:43.517Z,99883.66
2022-08-01T14:33:12.446Z,99882.28
2022-08-01T14:36:03.400Z,99872.19
2022-08-01T14:38:33.585Z,99875.38
2022-08-01T14:41:04.241Z,99875.00
2022-08-01T14:43:33.826Z,99870.16
2022-08-01T14:46:03.641Z,99884.41
2022-08-01T14:48:30.609Z,99884.44
2022-08-01T14:51:00.080Z,99878.19
2022-08-01T14:53:26.908Z,99878.31
2022-08-01T14:55:54.090Z,99887.28
2022-08-01T14:58:21.126Z,99892.66
2022-08-01T15:00:48.980Z,99896.25
2022-08-01T15:03:15.849Z,99886.81
2022-08-01T15:05:42.982Z,99894.38
2022-08-01T15:08:09.798Z,99892.56
2022-08-01T15:10:36.527Z,99892.28
2022-08-01T15:13:03.359Z,99890.88
2022-08-01T15:15:30.705Z,99893.94
2022-08-01T15:17:58.292Z,99890.59
2022-08-01T15:20:26.255Z,99893.88
2022-08-01T15:22:53.753Z,99893.41
2022-08-01T15:25:20.920Z,99892.16
2022-08-01T15:27:48.003Z,99902.19
2022-08-01T15:30:14.775Z,99894.03
2022-08-01T15:32:41.549Z,99902.56
2022-08-01T15:35:10.966Z,99896.44
2022-08-01T15:37:42.612Z,99908.63
2022-08-01T15:40:12.251Z,99909.53
2022-08-01T15:42:39.503Z,99908.25
2022-08-01T15:45:10.579Z,99908.63
2022-08-01T15:47:40.341Z,99916.03
2022-08-01T15:50:07.873Z,99913.09
2022-08-01T15:52:35.183Z,99911.81
2022-08-01T15:55:02.327Z,99914.13
2022-08-01T15:57:29.447Z,99913.91
2022-08-01T15:59:56.267Z,99909.66
2022-08-01T16:02:23.128Z,99910.88
2022-08-01T16:04:49.957Z,99908.41
2022-08-01T16:07:16.839Z,99914.41
2022-08-01T16:09:43.585Z,99906.69
2022-08-01T16:12:10.455Z,99915.34
2022-08-01T16:14:37.455Z,99914.41
2022-08-01T16:17:04.221Z,99907.09
2022-08-01T16:19:31.099Z,99912.88
2022-08-01T16:21:57.848Z,99918.44
2022-08-01T16:24:28.990Z,99915.81
2022-08-01T16:26:55.803Z,99918.28
2022-08-01T16:29:22.580Z,99916.84
2022-08-01T16:31:59.039Z,99917.09
2022-08-01T16:34:30.155Z,99915.72
2022-08-01T16:36:57.433Z,99922.03
2022-08-01T16:39:24.567Z,99912.88
2022-08-01T16:41:55.308Z,99912.50
2022-08-01T16:44:33.712Z,99915.47
2022-08-01T16:47:03.023Z,99914.84
2022-08-01T16:49:31.762Z,99908.78
2022-08-01T16:51:58.705Z,99904.53
2022-08-01T16:54:26.391Z,99902.88
2022-08-01T16:56:56.188Z,99909.84
2022-08-01T16:59:24.797Z,99902.25
2022-08-01T17:01:58.303Z,99905.81
2022-08-01T17:04:29.991Z,99898.44
2022-08-01T17:06:57.586Z,99904.22
2022-08-01T17:09:24.621Z,99901.41
2022-08-01T17:11:52.017Z,99909.59
2022-08-01T17:14:19.502Z,99908.84
2022-08-01T17:16:46.585Z,99900.34
2022-08-01T17:19:14.804Z,99906.25
2022-08-01T17:21:42.611Z,99907.31
2022-08-01T17:24:11.623Z,99908.59
2022-08-01T17:26:43.955Z,99919.34
2022-08-01T17:29:10.826Z,99914.59
2022-08-01T17:31:37.634Z,99906.47
2022-08-01T17:34:04.449Z,99912.22
2022-08-01T17:36:31.258Z,99911.94
2022-08-01T17:38:59.541Z,99914.34
2022-08-01T17:41:26.672Z,99925.63
2022-08-01T17:43:53.595Z,99923.13
2022-08-01T17:46:20.503Z,99922.31
2022-08-01T17:48:47.396Z,99921.38
2022-08-01T17:51:18.145Z,99911.88
2022-08-01T17:53:57.179Z,99913.03
2022-08-01T17:56:28.295Z,99923.34
2022-08-01T17:58:56.111Z,99925.22
2022-08-01T18:01:27.047Z,99931.34
2022-08-01T18:03:57.371Z,99926.13
2022-08-01T18:06:25.608Z,99927.75
2022-08-01T18:08:55.524Z,99928.13
2022-08-01T18:11:27.566Z,99922.69
2022-08-01T18:13:57.972Z,99931.97
2022-08-01T18:16:28.301Z,99922.97
2022-08-01T18:18:56.016Z,99933.75
2022-08-01T18:21:22.830Z,99949.84
2022-08-01T18:23:51.260Z,99937.44
2022-08-01T18:26:20.747Z,99945.69
2022-08-01T18:28:47.638Z,99946.16
2022-08-01T18:31:17.465Z,99947.53
2022-08-01T18:33:48.235Z,99957.44
2022-08-01T18:36:32.177Z,99963.00
2022-08-01T18:39:10.614Z,99963.53
2022-08-01T18:41:38.445Z,99968.34
2022-08-01T18:44:07.927Z,99970.38
2022-08-01T18:46:40.237Z,99965.56
2022-08-01T18:49:10.221Z,99967.69
2022-08-01T18:51:43.391Z,99968.13
2022-08-01T18:54:10.666Z,99965.94
2022-08-01T18:56:37.629Z,99975.84
2022-08-01T18:59:04.498Z,99985.56
2022-08-01T19:01:31.476Z,99982.47
2022-08-01T19:03:58.382Z,99988.03
2022-08-01T19:06:27.094Z,99979.66
2022-08-01T19:09:02.096Z,99973.22
2022-08-01T19:11:30.980Z,99980.44
2022-08-01T19:13:58.313Z,99986.81
2022-08-01T19:16:26.408Z,99986.22
2022-08-01T19:18:53.519Z,99985.81
2022-08-01T19:21:21.986Z,99982.69
2022-08-01T19:24:07.580Z,99983.94
2022-08-01T19:26:36.088Z,99990.44
2022-08-01T19:29:14.834Z,99989.13
2022-08-01T19:31:46.893Z,99996.47
2022-08-01T19:34:18.839Z,99992.53
2022-08-01T19:36:47.774Z,99994.53
2022-08-01T19:39:18.121Z,100005.28
2022-08-01T19:41:46.118Z,100008.28
2022-08-01T19:44:16.185Z,100013.84
2022-08-01T19:46:44.753Z,100010.72
2022-08-01T19:49:18.562Z,100011.94
2022-08-01T19:51:53.442Z,100014.94
2022-08-01T19:54:27.032Z,100006.88
2022-08-01T19:56:55.915Z,100016.78
2022-08-01T19:59:23.961Z,100016.25
2022-08-01T20:01:52.412Z,100028.72
2022-08-01T20:04:19.933Z,100028.16
2022-08-01T20:06:47.560Z,100032.72
2022-08-01T20:09:15.486Z,100029.53
2022-08-01T20:11:49.016Z,100037.50
2022-08-01T20:14:23.967Z,100031.78
2022-08-01T20:16:54.247Z,100036.41
2022-08-01T20:19:24.386Z,100026.44
2022-08-01T20:22:03.724Z,100035.31
2022-08-01T20:24:43.702Z,100045.13
2022-08-01T20:27:12.089Z,100043.72
2022-08-01T20:29:40.240Z,100043.09
2022-08-01T20:32:09.061Z,100050.34
2022-08-01T20:34:38.281Z,100050.59
2022-08-01T20:37:12.694Z,100054.16
2022-08-01T20:39:44.290Z,100046.75
2022-08-01T20:42:15.765Z,100048.75
2022-08-01T20:44:45.237Z,100049.84
2022-08-01T20:47:12.982Z,100044.03
2022-08-01T20:49:43.311Z,100052.09
2022-08-01T20:52:11.324Z,100051.50
2022-08-01T20:54:42.864Z,100051.72
2022-08-01T20:57:27.433Z,100046.25
2022-08-01T21:00:06.896Z,100047.44
2022-08-01T21:03:07.818Z,100047.91
2022-08-01T21:05:56.040Z,100045.66
2022-08-01T21:08:50.022Z,100044.34
2022-08-01T21:11:21.274Z,100054.94
2022-08-01T21:13:49.204Z,100050.03
2022-08-01T21:16:25.188Z,100056.31
2022-08-01T21:19:21.643Z,100046.22
2022-08-01T21:22:19.813Z,100052.72
2022-08-01T21:25:03.182Z,100047.81
2022-08-01T21:27:41.609Z,100043.72
2022-08-01T21:30:09.977Z,100049.03
2022-08-01T21:32:37.823Z,100051.00
2022-08-01T21:35:15.595Z,100056.38
2022-08-01T21:37:45.046Z,100065.16
2022-08-01T21:40:21.992Z,100057.72
2022-08-01T21:42:53.244Z,100063.91
2022-08-01T21:45:24.379Z,100053.75
2022-08-01T21:47:51.956Z,100060.75
2022-08-01T21:50:19.229Z,100061.69
2022-08-01T21:52:54.023Z,100058.41
2022-08-01T21:55:51.852Z,100056.00
2022-08-01T21:58:48.912Z,100065.47
2022-08-01T22:01:52.130Z,100065.56
2022-08-01T22:04:38.108Z,100057.09
2022-08-01T22:07:10.275Z,100064.75
2022-08-01T22:09:44.039Z,100069.91
2022-08-01T22:12:17.936Z,100063.88
2022-08-01T22:14:53.671Z,100069.84
2022-08-01T22:17:24.249Z,100066.44
2022-08-01T22:19:55.253Z,100060.44
2022-08-01T22:22:45.182Z,100065.72
2022-08-01T22:25:15.381Z,100059.06
2022-08-01T22:28:06.071Z,100065.94
2022-08-01T22:30:29.811Z,100062.59
2022-08-01T22:33:07.522Z,100063.41
2022-08-01T22:35:47.305Z,100057.53
2022-08-01T22:38:18.936Z,100063.59
2022-08-01T22:40:52.241Z,100064.53
2022-08-01T22:43:49.406Z,100059.47
2022-08-01T22:46:40.438Z,100055.31
2022-08-01T22:49:25.580Z,100052.94
2022-08-01T22:52:11.714Z,100048.75
2022-08-01T22:54:43.460Z,100042.84
2022-08-01T22:57:25.152Z,100057.56
2022-08-01T23:00:04.836Z,100055.13
2022-08-01T23:02:39.297Z,100046.66
2022-08-01T23:05:11.972Z,100051.06
2022-08-01T23:07:45.998Z,100053.88
2022-08-01T23:10:13.498Z,100050.44
2022-08-01T23:12:43.258Z,100053.09
2022-08-01T23:15:14.766Z,100052.25
2022-08-01T23:17:43.331Z,100049.72
2022-08-01T23:20:11.993Z,100045.50
2022-08-01T23:22:40.702Z,100046.38
2022-08-01T23:25:12.293Z,100049.84
2022-08-01T23:27:54.270Z,100049.91
2022-08-01T23:30:36.810Z,100056.00
2022-08-01T23:33:04.682Z,100049.22
2022-08-01T23:35:35.464Z,100054.38
2022-08-01T23:38:07.666Z,100052.63
2022-08-01T23:40:35.862Z,100047.53
2022-08-01T23:43:05.748Z,100045.91
2022-08-01T23:46:04.371Z,100051.13
2022-08-01T23:48:28.441Z,100049.53
2022-08-01T23:50:55.301Z,100050.50
2022-08-01T23:53:24.584Z,100050.63
2022-08-01T23:56:06.428Z,100053.31
2022-08-01T23:58:33.579Z,100060.38
